Time;durP1;ratioP1;P1;durP2;ratioP2;P2;SDS_P1;SDS_P2;PMS_P1;PMS_P2;Temp;Humidity;BMP_temperature;BMP_pressure;BME280_temperature;BME280_humidity;BME280_pressure;Samples;Min_cycle;Max_cycle;Signal;HPM_P1;HPM_P2
2021/10/21 00:01:22;;;;;;;3.78;2.70;;;13.50;72.50;;;12.09;77.04;94923.00;4995154;28;20037;-71
2021/10/21 00:03:48;;;;;;;4.50;3.25;;;13.50;72.20;;;12.11;76.92;94912.22;4997747;28;20029;-70
2021/10/21 00:06:13;;;;;;;4.30;2.78;;;13.50;72.30;;;12.10;77.06;94914.06;4996112;28;20030;-70
2021/10/21 00:08:39;;;;;;;4.05;2.83;;;13.60;71.90;;;12.13;76.44;94916.22;5012318;28;20044;-70
2021/10/21 00:11:05;;;;;;;4.47;2.67;;;13.60;71.90;;;12.17;76.82;94913.94;5026794;28;20033;-69
2021/10/21 00:13:31;;;;;;;3.78;3.00;;;13.60;72.00;;;12.20;76.75;94930.09;5026177;28;20064;-69
2021/10/21 00:15:56;;;;;;;4.72;2.83;;;13.60;72.30;;;12.22;76.93;94916.69;5010490;28;20053;-69
2021/10/21 00:18:22;;;;;;;4.43;3.25;;;13.60;72.70;;;12.22;77.52;94909.63;5012176;28;20064;-70
2021/10/21 00:20:48;;;;;;;5.32;2.85;;;13.60;72.90;;;12.26;77.50;94907.31;4976776;28;20044;-70
2021/10/21 00:23:14;;;;;;;5.30;2.88;;;13.70;73.10;;;12.29;77.33;94900.78;4995248;28;20530;-70
2021/10/21 00:25:39;;;;;;;4.25;3.00;;;13.70;73.00;;;12.27;77.72;94893.09;4994869;28;20041;-70
2021/10/21 00:28:05;;;;;;;4.07;2.80;;;13.70;73.00;;;12.27;77.81;94886.00;4979599;28;20068;-70
2021/10/21 00:30:31;;;;;;;3.70;2.58;;;13.80;72.90;;;12.26;77.45;94896.78;4977486;28;20081;-71
2021/10/21 00:32:57;;;;;;;4.18;2.90;;;13.70;72.80;;;12.23;78.29;94890.13;4982315;28;20439;-71
2021/10/21 00:35:23;;;;;;;3.50;2.47;;;13.70;73.00;;;12.22;78.34;94891.16;4994652;28;20107;-71
2021/10/21 00:37:49;;;;;;;4.18;2.90;;;13.60;73.10;;;12.19;77.74;94894.22;4988373;28;20033;-71
2021/10/21 00:40:15;;;;;;;4.55;3.00;;;13.60;73.10;;;12.18;78.07;94879.44;5028304;28;20060;-71
2021/10/21 00:42:40;;;;;;;3.83;2.70;;;13.60;73.20;;;12.12;78.14;94854.00;5009158;28;20044;-71
2021/10/21 00:45:06;;;;;;;5.18;3.08;;;13.60;73.10;;;12.10;77.79;94856.06;4983182;28;20136;-70
2021/10/21 00:47:32;;;;;;;3.53;2.70;;;13.60;73.00;;;12.09;77.70;94843.94;4991288;28;20029;-70
2021/10/21 00:49:58;;;;;;;3.80;2.50;;;13.60;72.20;;;12.11;77.91;94841.88;5000406;28;20072;-70
2021/10/21 00:52:24;;;;;;;4.15;2.65;;;13.60;72.00;;;12.14;77.76;94841.41;4976806;28;20048;-70
2021/10/21 00:54:50;;;;;;;3.80;2.70;;;13.60;72.50;;;12.17;78.21;94840.94;4979022;28;20044;-70
2021/10/21 00:57:16;;;;;;;3.92;2.85;;;13.60;73.00;;;12.14;78.24;94841.41;4994474;28;20060;-70
2021/10/21 00:59:43;;;;;;;5.85;3.20;;;13.60;73.00;;;12.09;78.09;94828.09;4976578;28;20038;-69
2021/10/21 01:02:09;;;;;;;4.40;2.95;;;13.50;73.20;;;12.03;77.68;94822.97;4979250;28;20041;-70
2021/10/21 01:04:34;;;;;;;3.28;2.60;;;13.50;73.20;;;11.97;77.98;94808.84;4996541;28;20076;-71
2021/10/21 01:07:01;;;;;;;4.95;2.88;;;13.50;73.20;;;11.95;78.79;94806.44;4978547;28;20040;-71
2021/10/21 01:09:27;;;;;;;5.50;2.90;;;13.40;73.30;;;11.95;78.66;94808.28;4993330;28;20056;-71
2021/10/21 01:11:52;;;;;;;3.40;2.65;;;13.40;73.60;;;11.92;78.63;94811.38;4976060;28;20510;-71
2021/10/21 01:14:19;;;;;;;4.40;2.85;;;13.30;73.60;;;11.89;78.93;94811.81;4990203;28;20060;-71
2021/10/21 01:16:44;;;;;;;3.17;2.65;;;13.30;73.50;;;11.85;78.59;94806.22;5006090;28;20514;-71
2021/10/21 01:19:19;;;;;;;3.95;2.70;;;13.20;73.60;;;11.81;78.87;94801.63;4986699;28;20033;-71
2021/10/21 01:21:45;;;;;;;6.82;2.78;;;13.10;73.90;;;11.75;78.61;94795.41;5001932;28;20044;-71
2021/10/21 01:24:11;;;;;;;4.28;2.97;;;13.10;74.10;;;11.70;78.75;94786.56;4993539;28;20564;-70
2021/10/21 01:26:37;;;;;;;4.63;3.13;;;13.10;74.30;;;11.63;78.80;94784.88;4977815;28;20124;-71
2021/10/21 01:29:03;;;;;;;3.85;2.58;;;13.00;74.20;;;11.58;79.20;94774.22;5010599;28;20116;-71
2021/10/21 01:31:29;;;;;;;3.95;2.78;;;12.90;74.40;;;11.52;79.26;94769.84;5000595;28;20495;-71
2021/10/21 01:33:55;;;;;;;3.72;2.80;;;12.80;74.50;;;11.47;79.89;94772.34;4973720;28;20038;-71
2021/10/21 01:36:21;;;;;;;3.45;2.70;;;12.80;74.80;;;11.43;79.15;94779.09;4973849;28;20494;-70
2021/10/21 01:38:46;;;;;;;5.63;2.70;;;12.70;74.90;;;11.39;79.30;94775.31;5026081;28;20042;-70
2021/10/21 01:41:12;;;;;;;4.40;3.10;;;12.70;75.10;;;11.34;80.13;94765.47;4992492;28;20072;-71
2021/10/21 01:43:44;;;;;;;5.05;3.45;;;12.70;75.20;;;11.32;80.71;94777.25;4993592;28;20037;-70
2021/10/21 01:46:10;;;;;;;6.75;4.00;;;12.70;75.40;;;11.28;80.75;94773.44;5004156;28;20034;-70
2021/10/21 01:48:36;;;;;;;5.53;4.00;;;12.70;75.50;;;11.24;80.19;94762.56;4991863;28;20037;-69
2021/10/21 01:51:03;;;;;;;6.85;3.95;;;12.60;75.80;;;11.26;80.27;94759.72;4969038;28;20038;-69
2021/10/21 01:53:28;;;;;;;9.30;4.20;;;12.70;75.80;;;11.23;80.39;94760.16;4959516;28;20033;-69
2021/10/21 01:55:54;;;;;;;5.15;4.15;;;12.60;76.00;;;11.23;80.70;94754.91;5003438;28;20057;-70
2021/10/21 01:58:20;;;;;;;5.47;4.03;;;12.60;76.10;;;11.21;81.75;94751.69;5004009;28;20038;-70
2021/10/21 02:00:45;;;;;;;5.10;3.67;;;12.60;76.20;;;11.21;81.70;94756.97;5006289;28;20033;-70
2021/10/21 02:03:11;;;;;;;7.65;4.32;;;12.70;76.30;;;11.20;81.76;94768.53;4988461;28;20510;-70
2021/10/21 02:05:37;;;;;;;6.85;3.92;;;12.60;76.40;;;11.23;82.00;94765.44;4988245;28;20483;-71
2021/10/21 02:08:03;;;;;;;5.63;4.15;;;12.60;76.30;;;11.22;81.23;94766.47;4989823;28;20092;-70
2021/10/21 02:10:29;;;;;;;4.38;3.78;;;12.70;76.00;;;11.24;81.86;94756.50;5005426;28;20486;-70
2021/10/21 02:12:55;;;;;;;5.75;4.30;;;12.70;75.90;;;11.25;81.97;94750.22;4986525;28;20295;-70
2021/10/21 02:15:20;;;;;;;6.30;3.90;;;12.70;75.90;;;11.23;81.74;94752.28;5020370;28;20512;-70
2021/10/21 02:17:46;;;;;;;6.85;4.00;;;12.70;75.80;;;11.26;81.73;94738.66;4987726;28;20792;-70
2021/10/21 02:20:13;;;;;;;7.85;4.53;;;12.70;75.50;;;11.25;81.29;94739.69;5004801;28;20042;-69
2021/10/21 02:22:39;;;;;;;5.18;3.90;;;12.80;75.50;;;11.26;81.75;94750.00;5021387;28;20388;-70
2021/10/21 02:25:07;;;;;;;6.35;4.68;;;12.70;75.70;;;11.27;81.29;94730.53;4987715;28;20766;-70
2021/10/21 02:27:33;;;;;;;4.18;3.72;;;12.70;75.90;;;11.29;81.31;94744.28;4989705;28;20045;-70
2021/10/21 02:29:59;;;;;;;5.90;4.50;;;12.80;75.80;;;11.31;81.59;94741.41;4970167;28;20486;-69
2021/10/21 02:32:25;;;;;;;5.10;4.03;;;12.80;75.70;;;11.33;81.74;94763.06;5004090;28;20042;-70
2021/10/21 02:34:50;;;;;;;5.53;4.00;;;12.80;75.60;;;11.35;81.78;94764.44;4988357;28;20180;-70
2021/10/21 02:37:16;;;;;;;5.30;3.92;;;12.90;75.30;;;11.36;81.39;94765.25;5003368;28;20085;-70
2021/10/21 02:39:43;;;;;;;6.88;4.20;;;12.80;75.40;;;11.37;81.58;94777.38;5006417;28;20057;-69
2021/10/21 02:42:08;;;;;;;5.40;3.97;;;12.70;75.80;;;11.37;81.23;94782.66;4990468;28;20038;-70
2021/10/21 02:44:34;;;;;;;5.63;4.05;;;12.70;75.50;;;11.37;81.27;94790.53;4987914;28;20070;-70
2021/10/21 02:47:00;;;;;;;4.93;3.90;;;12.70;75.80;;;11.38;81.35;94784.25;4998787;28;20060;-69
2021/10/21 02:49:25;;;;;;;6.45;4.05;;;12.80;75.40;;;11.39;81.19;94742.94;4987111;28;20061;-70
2021/10/21 02:51:51;;;;;;;5.50;3.60;;;12.80;75.50;;;11.38;81.65;94718.44;5005887;28;20066;-70
2021/10/21 02:54:17;;;;;;;5.38;3.40;;;12.90;75.50;;;11.42;81.60;94727.47;4971367;28;20042;-70
2021/10/21 02:56:43;;;;;;;4.47;3.60;;;12.90;75.40;;;11.44;80.93;94714.88;5021278;28;20072;-70
2021/10/21 02:59:08;;;;;;;4.80;3.75;;;12.90;75.30;;;11.43;81.41;94728.28;5007994;28;20054;-70
2021/10/21 03:01:34;;;;;;;4.47;3.35;;;12.90;75.50;;;11.47;81.65;94729.41;5010189;28;20065;-70
2021/10/21 03:04:00;;;;;;;6.10;3.65;;;13.00;74.80;;;11.48;81.84;94716.03;5007803;28;20042;-70
2021/10/21 03:06:26;;;;;;;5.68;3.17;;;13.00;75.30;;;11.49;82.02;94717.63;4989036;28;20189;-70
2021/10/21 03:08:52;;;;;;;5.20;3.17;;;13.10;75.60;;;11.52;81.72;94703.22;4976160;28;20056;-70
2021/10/21 03:11:17;;;;;;;4.78;3.28;;;13.10;75.50;;;11.55;81.70;94700.13;5009927;28;20057;-69
2021/10/21 03:13:43;;;;;;;4.47;3.33;;;13.10;75.10;;;11.60;81.26;94737.91;5001601;28;20113;-69
2021/10/21 03:16:09;;;;;;;4.15;2.95;;;13.10;75.10;;;11.63;81.87;94766.44;4989018;28;20116;-70
2021/10/21 03:18:35;;;;;;;3.95;2.92;;;13.20;75.60;;;11.66;81.49;94794.94;5010047;28;20042;-71
2021/10/21 03:21:00;;;;;;;4.22;3.15;;;13.20;75.20;;;11.70;81.74;94786.56;5009487;28;20124;-70
2021/10/21 03:23:26;;;;;;;4.72;3.50;;;13.20;75.10;;;11.70;81.27;94781.31;5007923;28;20069;-70
2021/10/21 03:25:53;;;;;;;4.35;3.10;;;13.20;74.80;;;11.72;81.57;94787.16;4997324;28;20048;-71
2021/10/21 03:28:18;;;;;;;4.35;3.22;;;13.30;75.30;;;11.73;81.99;94788.75;4989900;28;20507;-73
2021/10/21 03:30:44;;;;;;;4.25;3.28;;;13.30;75.00;;;11.76;81.62;94796.19;4960292;28;20121;-67
2021/10/21 03:33:12;;;;;;;5.80;3.70;;;13.40;75.20;;;11.76;81.20;94817.28;4971910;28;20034;-73
2021/10/21 03:35:38;;;;;;;6.93;4.45;;;13.30;74.80;;;11.77;81.43;94818.88;4992964;28;20131;-72
2021/10/21 03:38:04;;;;;;;7.63;4.22;;;13.30;74.40;;;11.78;81.21;94815.25;4998242;28;20038;-67
2021/10/21 03:40:30;;;;;;;6.47;3.90;;;13.30;74.20;;;11.80;81.62;94819.28;4991280;28;20045;-67
2021/10/21 03:42:55;;;;;;;5.22;4.00;;;13.40;75.00;;;11.81;81.57;94827.97;4994096;28;20038;-67
2021/10/21 03:45:21;;;;;;;7.45;4.35;;;13.40;75.20;;;11.83;82.32;94833.81;5010167;28;20061;-71
2021/10/21 03:47:47;;;;;;;5.10;3.72;;;13.40;75.50;;;11.83;81.79;94818.81;4991258;28;20072;-71
2021/10/21 03:50:13;;;;;;;11.57;8.68;;;13.40;75.00;;;11.82;82.51;94804.03;5010265;28;20440;-71
2021/10/21 03:52:39;;;;;;;10.60;7.95;;;13.40;75.60;;;11.83;82.43;94796.94;4994148;28;20046;-71
2021/10/21 03:55:05;;;;;;;12.38;8.90;;;13.40;75.90;;;11.84;83.08;94785.38;5010693;28;20033;-70
2021/10/21 03:57:31;;;;;;;8.98;7.60;;;13.40;76.30;;;11.86;82.95;94820.19;5006693;28;20046;-69
2021/10/21 03:59:57;;;;;;;4.90;3.65;;;13.50;76.50;;;11.83;83.06;94853.06;4992091;28;20515;-70
2021/10/21 04:02:22;;;;;;;12.05;8.32;;;13.30;75.80;;;11.83;82.39;94875.97;4993683;28;20041;-71
2021/10/21 04:04:48;;;;;;;12.43;10.40;;;13.30;75.50;;;11.85;82.90;94879.19;4994083;28;20042;-70
2021/10/21 04:07:14;;;;;;;8.98;4.40;;;13.40;76.20;;;11.84;82.61;94873.13;4994006;28;20041;-71
2021/10/21 04:09:40;;;;;;;12.18;9.70;;;13.40;75.70;;;11.85;82.30;94881.81;5008146;28;20042;-71
2021/10/21 04:12:05;;;;;;;21.08;15.70;;;13.40;75.60;;;11.85;82.05;94887.09;4992203;28;20448;-72
2021/10/21 04:14:31;;;;;;;10.43;7.60;;;13.50;75.30;;;11.86;82.83;94901.88;5007390;28;20042;-71
2021/10/21 04:16:57;;;;;;;22.33;18.35;;;13.40;75.20;;;11.86;82.78;94900.03;4977886;28;20042;-71
2021/10/21 04:19:23;;;;;;;13.05;11.65;;;13.40;75.70;;;11.87;82.70;94908.75;4992708;28;20483;-71
2021/10/21 04:21:49;;;;;;;5.28;4.50;;;13.50;76.10;;;11.88;82.65;94921.69;4993133;28;20833;-70
2021/10/21 04:24:14;;;;;;;4.18;3.60;;;13.40;75.20;;;11.87;82.03;94930.63;5011188;28;20443;-71
2021/10/21 04:26:40;;;;;;;4.30;3.45;;;13.40;75.30;;;11.88;82.99;94932.22;5012996;28;20088;-72
2021/10/21 04:29:06;;;;;;;5.60;4.65;;;13.50;76.20;;;11.88;82.91;94931.44;4999642;28;20695;-72
2021/10/21 04:31:31;;;;;;;11.13;6.90;;;13.50;76.20;;;11.90;82.50;94937.28;4976732;28;20670;-71
2021/10/21 04:33:58;;;;;;;7.63;5.75;;;13.40;75.40;;;11.89;82.81;94949.66;5008992;28;20526;-71
2021/10/21 04:36:23;;;;;;;5.03;4.28;;;13.50;75.10;;;11.89;82.50;94956.75;4992668;28;20041;-68
2021/10/21 04:38:49;;;;;;;5.00;3.50;;;13.40;74.90;;;11.92;82.14;94953.66;4976335;28;20046;-68
2021/10/21 04:41:15;;;;;;;26.08;8.90;;;13.40;75.20;;;11.91;81.65;94905.44;4992872;28;20137;-71
2021/10/21 04:43:41;;;;;;;10.43;5.65;;;13.40;74.90;;;11.94;82.29;94883.88;4992081;28;20048;-77
2021/10/21 04:46:06;;;;;;;7.22;4.35;;;13.50;75.60;;;11.96;82.39;94844.94;4991473;28;20150;-72
2021/10/21 04:48:32;;;;;;;5.70;3.70;;;13.50;75.70;;;11.96;83.29;94855.47;4993047;28;20069;-72
2021/10/21 04:50:58;;;;;;;5.72;3.90;;;13.60;76.50;;;11.97;83.28;94866.81;4990863;28;20084;-70
2021/10/21 04:53:23;;;;;;;6.93;5.40;;;13.50;76.80;;;11.97;82.37;94872.09;4989673;28;20128;-71
2021/10/21 04:55:49;;;;;;;5.43;4.10;;;13.50;75.00;;;11.98;82.05;94867.63;5006898;28;20069;-68
2021/10/21 04:58:15;;;;;;;5.80;3.55;;;13.50;73.40;;;12.01;81.09;94860.09;5010083;28;20554;-71
2021/10/21 05:00:41;;;;;;;5.35;3.53;;;13.50;73.30;;;12.02;80.86;94885.41;4992849;28;20533;-69
2021/10/21 05:03:11;;;;;;;4.40;3.47;;;13.50;73.40;;;12.05;80.60;94863.88;5008931;28;20034;-73
2021/10/21 05:05:37;;;;;;;5.25;3.58;;;13.50;73.60;;;12.06;80.30;94843.59;4989169;28;20026;-74
2021/10/21 05:08:03;;;;;;;4.18;3.00;;;13.60;73.30;;;12.10;79.64;94787.53;4990585;28;20045;-67
2021/10/21 05:10:29;;;;;;;4.68;3.40;;;13.60;72.70;;;12.15;79.95;94813.19;5007739;28;20121;-70
2021/10/21 05:12:55;;;;;;;4.32;3.30;;;13.60;72.60;;;12.14;79.12;94846.66;4990892;28;20042;-70
2021/10/21 05:15:23;;;;;;;3.83;3.28;;;13.60;72.30;;;12.14;79.05;94862.47;4975581;28;20034;-70
2021/10/21 05:17:49;;;;;;;8.15;4.18;;;13.60;72.50;;;12.16;79.29;94864.88;4995607;28;20120;-68
2021/10/21 05:20:14;;;;;;;5.97;3.72;;;13.60;72.30;;;12.15;79.04;94877.25;5003254;28;20475;-71
2021/10/21 05:22:40;;;;;;;5.35;3.83;;;13.50;72.60;;;12.15;78.84;94868.56;5005131;28;20065;-71
2021/10/21 05:25:06;;;;;;;5.68;3.30;;;13.50;72.30;;;12.14;78.23;94862.47;5017320;28;20048;-69
2021/10/21 05:27:33;;;;;;;9.82;4.10;;;13.40;72.30;;;12.18;78.64;94853.09;5009757;28;20052;-71
2021/10/21 05:29:58;;;;;;;4.00;3.20;;;13.50;72.20;;;12.17;77.70;94840.94;4991957;28;20045;-71
2021/10/21 05:32:24;;;;;;;4.18;3.55;;;13.60;71.90;;;12.25;77.75;94843.25;4974095;28;20030;-71
2021/10/21 05:34:50;;;;;;;7.18;3.83;;;13.60;71.60;;;12.35;77.99;94831.31;4975563;28;20062;-74
2021/10/21 05:37:16;;;;;;;11.10;4.68;;;13.80;70.70;;;12.52;77.34;94832.22;4981728;28;20470;-69
2021/10/21 05:39:41;;;;;;;7.07;4.30;;;14.00;70.00;;;12.71;75.89;94825.75;4972479;28;20439;-72
2021/10/21 05:42:08;;;;;;;7.13;4.72;;;14.30;68.60;;;12.92;75.19;94842.00;4967845;28;20072;-71
2021/10/21 05:44:33;;;;;;;4.40;2.88;;;14.60;67.80;;;13.16;75.33;94854.09;5005959;28;20045;-70
2021/10/21 05:46:59;;;;;;;6.90;2.80;;;14.80;66.90;;;13.43;74.78;94847.22;4974809;28;20153;-69
2021/10/21 05:49:25;;;;;;;4.57;2.58;;;15.10;66.00;;;13.66;74.18;94861.34;5006572;28;20135;-70
2021/10/21 05:51:51;;;;;;;6.28;2.50;;;15.30;65.90;;;13.86;74.44;94879.41;4971440;28;20073;-70
2021/10/21 05:54:16;;;;;;;6.20;2.50;;;15.50;66.70;;;14.00;74.60;94901.81;4991139;28;20128;-72
2021/10/21 05:56:43;;;;;;;3.35;1.85;;;15.60;67.80;;;14.13;74.03;94924.53;4991600;28;20037;-70
2021/10/21 05:59:09;;;;;;;2.85;1.92;;;15.60;68.50;;;14.22;74.47;94923.06;4991741;28;20038;-71
2021/10/21 06:01:35;;;;;;;7.47;3.05;;;15.70;69.50;;;14.25;75.73;94947.19;5003603;28;20099;-69
2021/10/21 06:04:01;;;;;;;2.85;2.33;;;15.60;70.40;;;14.26;76.32;94963.91;4970596;28;20121;-72
2021/10/21 06:06:26;;;;;;;4.10;1.90;;;15.60;69.80;;;14.27;76.40;94961.00;4989252;28;20034;-70
2021/10/21 06:08:52;;;;;;;3.63;1.65;;;15.50;70.20;;;14.20;75.63;94959.53;5009238;28;20530;-72
2021/10/21 06:11:18;;;;;;;5.35;1.73;;;15.20;71.00;;;14.03;75.25;95007.09;4990617;28;20037;-73
2021/10/21 06:13:44;;;;;;;3.15;1.70;;;15.00;70.70;;;13.91;77.18;94993.16;4957917;28;20069;-70
2021/10/21 06:16:09;;;;;;;5.55;1.65;;;14.90;72.00;;;13.74;76.19;95011.59;5007422;28;20084;-70
2021/10/21 06:18:35;;;;;;;3.13;1.40;;;14.70;70.90;;;13.66;75.87;94996.13;5007703;28;20096;-71
2021/10/21 06:21:07;;;;;;;3.17;1.30;;;14.60;71.70;;;13.55;75.37;94978.44;5006921;28;20048;-72
2021/10/21 06:23:33;;;;;;;2.35;1.25;;;14.50;72.00;;;13.36;76.83;94954.88;4975792;28;20092;-71
2021/10/21 06:25:59;;;;;;;1.92;1.42;;;14.40;72.10;;;13.32;76.08;94971.38;5014130;28;20026;-69
2021/10/21 06:28:25;;;;;;;3.35;1.30;;;14.40;71.50;;;13.26;75.67;94972.31;4972039;28;20239;-69
2021/10/21 06:30:51;;;;;;;2.25;1.30;;;14.30;71.00;;;13.21;75.58;94991.50;5006713;28;20054;-70
2021/10/21 06:33:16;;;;;;;2.00;0.93;;;14.30;70.40;;;13.18;74.94;94984.06;4999886;28;20066;-70
2021/10/21 06:35:43;;;;;;;5.28;1.20;;;14.30;69.60;;;13.16;74.47;94996.66;4959054;28;20026;-72
2021/10/21 06:38:09;;;;;;;2.28;0.90;;;14.30;67.80;;;13.14;74.59;94999.53;4991544;28;20033;-69
2021/10/21 06:40:35;;;;;;;4.03;1.10;;;14.40;68.00;;;13.10;72.53;95008.13;4974310;28;20030;-69
2021/10/21 06:43:01;;;;;;;2.83;0.82;;;14.20;66.30;;;13.06;71.87;95025.47;4991402;28;20523;-69
2021/10/21 06:45:27;;;;;;;2.42;0.70;;;14.20;66.40;;;12.99;72.65;95037.97;4973213;28;20081;-70
2021/10/21 06:47:52;;;;;;;2.75;0.50;;;14.10;67.20;;;12.96;72.17;95054.28;4955511;28;20035;-74
2021/10/21 06:50:19;;;;;;;4.93;0.77;;;14.00;66.20;;;12.91;70.72;95041.78;4988795;28;20061;-71
2021/10/21 06:52:45;;;;;;;3.30;0.90;;;14.00;65.40;;;12.86;71.35;95074.09;4989323;28;20034;-70
2021/10/21 06:55:12;;;;;;;1.80;0.50;;;14.00;65.50;;;12.82;70.82;95058.97;5008018;28;20052;-72
2021/10/21 06:58:05;;;;;;;3.10;0.57;;;13.90;65.10;;;12.79;69.59;95065.50;4991621;28;20129;-70
2021/10/21 07:00:40;;;;;;;2.17;0.47;;;13.90;65.20;;;12.77;69.96;95072.84;5001761;28;20620;-72
2021/10/21 07:03:07;;;;;;;2.20;0.82;;;14.00;65.60;;;12.74;70.56;95073.31;4987665;28;20041;-72
2021/10/21 07:05:38;;;;;;;2.78;0.60;;;13.80;64.70;;;12.72;69.68;95067.47;4975441;28;20030;-72
2021/10/21 07:08:08;;;;;;;1.52;0.50;;;13.80;65.40;;;12.70;69.53;95088.00;4991969;28;20192;-71
2021/10/21 07:10:34;;;;;;;2.37;0.87;;;13.80;65.20;;;12.68;69.36;95090.06;4989350;28;20135;-71
2021/10/21 07:13:03;;;;;;;4.30;0.90;;;13.90;64.50;;;12.69;69.61;95093.50;4954826;28;20037;-70
2021/10/21 07:15:29;;;;;;;3.05;0.70;;;13.90;64.20;;;12.69;69.91;95090.84;4987999;28;20108;-70
2021/10/21 07:17:55;;;;;;;2.95;0.70;;;13.90;64.60;;;12.70;69.64;95119.66;4977091;28;20088;-71
2021/10/21 07:20:21;;;;;;;4.28;0.88;;;13.90;64.00;;;12.71;68.38;95094.06;5006764;28;20414;-69
2021/10/21 07:22:46;;;;;;;3.17;0.52;;;13.90;63.00;;;12.71;68.79;95102.78;5008081;28;20038;-71
2021/10/21 07:25:12;;;;;;;2.17;0.60;;;14.00;62.50;;;12.74;67.72;95109.44;5008703;28;20037;-69
2021/10/21 07:27:39;;;;;;;3.55;0.90;;;14.10;62.40;;;12.79;68.21;95113.00;5006422;28;20083;-68
2021/10/21 07:30:05;;;;;;;4.22;1.02;;;14.10;62.00;;;12.81;68.14;95121.50;5004857;28;20041;-69
2021/10/21 07:32:31;;;;;;;3.90;0.93;;;14.10;61.80;;;12.85;67.52;95132.41;4988863;28;20030;-69
2021/10/21 07:34:57;;;;;;;4.25;0.80;;;14.10;61.00;;;12.89;66.80;95139.63;4989999;28;20034;-69
2021/10/21 07:37:23;;;;;;;3.65;0.73;;;14.20;61.10;;;12.92;66.66;95140.22;4989820;28;20042;-69
2021/10/21 07:39:48;;;;;;;4.15;1.00;;;14.10;60.30;;;12.94;65.54;95146.09;4973904;28;20058;-69
2021/10/21 07:42:14;;;;;;;5.75;0.98;;;14.20;60.00;;;12.96;66.67;95147.47;5002958;28;20042;-70
2021/10/21 07:44:40;;;;;;;6.97;1.20;;;14.30;60.30;;;12.99;65.32;95154.13;4990829;28;20061;-68
2021/10/21 07:47:06;;;;;;;5.18;0.90;;;14.30;60.10;;;12.98;65.59;95168.34;4974573;28;20130;-75
2021/10/21 07:49:32;;;;;;;4.38;0.85;;;14.20;59.50;;;12.99;65.37;95164.69;4993333;28;20058;-69
2021/10/21 07:51:58;;;;;;;5.97;0.93;;;14.20;59.60;;;12.96;64.23;95170.41;5010753;28;20037;-69
2021/10/21 07:54:26;;;;;;;4.00;0.88;;;14.10;58.60;;;13.00;65.13;95197.97;4977846;28;20084;-67
2021/10/21 07:56:53;;;;;;;7.32;0.80;;;14.30;59.40;;;12.97;64.76;95190.50;4995045;28;20038;-73
2021/10/21 07:59:20;;;;;;;5.57;0.80;;;14.20;58.30;;;12.98;63.47;95178.91;4993605;28;20028;-69
2021/10/21 08:01:46;;;;;;;5.93;1.10;;;14.20;58.00;;;13.01;63.39;95213.56;4992368;28;20060;-66
2021/10/21 08:04:14;;;;;;;6.32;1.00;;;14.30;58.40;;;13.04;63.06;95199.13;5007176;28;20046;-68
2021/10/21 08:06:42;;;;;;;6.43;1.00;;;14.40;57.90;;;13.07;64.00;95198.66;4994710;28;20025;-67
2021/10/21 08:09:08;;;;;;;7.82;1.65;;;14.40;58.30;;;13.10;63.03;95219.34;4977854;28;20053;-69
2021/10/21 08:11:34;;;;;;;4.95;0.98;;;14.50;57.50;;;13.09;62.99;95201.88;4991954;28;20042;-70
2021/10/21 08:14:02;;;;;;;4.78;1.05;;;14.50;56.60;;;13.14;62.80;95217.88;4991823;28;20434;-69
2021/10/21 08:16:28;;;;;;;7.30;1.65;;;14.50;56.80;;;13.17;62.28;95239.38;5010065;28;20049;-70
2021/10/21 08:18:53;;;;;;;6.35;1.30;;;14.60;55.80;;;13.17;62.08;95242.00;5009900;28;20061;-69
2021/10/21 08:21:19;;;;;;;8.15;1.00;;;14.60;56.10;;;13.18;61.69;95242.81;4960634;28;20034;-69
2021/10/21 08:23:47;;;;;;;7.20;1.13;;;14.50;55.00;;;13.25;61.42;95254.09;5007823;28;20518;-65
2021/10/21 08:26:13;;;;;;;6.00;1.42;;;14.70;54.70;;;13.35;60.79;95238.50;5012350;28;20037;-67
2021/10/21 08:28:39;;;;;;;9.50;1.55;;;15.00;53.40;;;13.48;61.21;95248.84;4992132;28;20340;-67
2021/10/21 08:31:05;;;;;;;8.68;1.30;;;15.10;54.00;;;13.60;61.33;95251.53;4989698;28;20058;-67
2021/10/21 08:33:30;;;;;;;7.53;2.13;;;15.30;53.80;;;13.69;59.81;95250.13;4990230;28;20109;-72
2021/10/21 08:35:56;;;;;;;8.00;1.73;;;15.20;52.80;;;13.70;59.91;95251.75;5009758;28;20034;-71
2021/10/21 08:38:22;;;;;;;7.45;1.67;;;15.30;52.90;;;13.77;59.12;95270.13;4986142;28;20026;-69
2021/10/21 08:40:48;;;;;;;9.40;1.25;;;15.40;52.60;;;13.89;60.41;95265.66;4976016;28;20460;-70
2021/10/21 08:43:14;;;;;;;5.82;1.10;;;15.60;52.60;;;13.97;58.24;95269.78;4976803;28;20104;-73
2021/10/21 08:45:39;;;;;;;7.10;1.30;;;15.50;51.50;;;14.01;58.61;95298.19;4976746;28;20519;-67
2021/10/21 08:48:05;;;;;;;10.18;1.20;;;15.70;51.40;;;14.16;57.63;95291.63;4993075;28;20073;-71
2021/10/21 08:50:33;;;;;;;8.65;1.30;;;16.20;49.30;;;14.32;58.32;95283.00;4976030;28;20396;-70
2021/10/21 08:53:03;;;;;;;9.82;1.58;;;16.20;49.00;;;14.49;58.10;95276.00;4993099;28;20037;-70
2021/10/21 08:55:29;;;;;;;8.80;1.45;;;16.50;47.50;;;14.61;56.73;95274.13;4993074;28;20062;-68
2021/10/21 08:57:55;;;;;;;7.82;1.45;;;16.80;46.80;;;14.92;54.94;95317.06;5006984;28;20073;-69
2021/10/21 09:00:21;;;;;;;14.25;1.92;;;17.40;45.00;;;15.08;55.59;95295.16;4984841;28;20545;-70
2021/10/21 09:05:27;;;;;;;9.40;1.45;;;18.10;44.30;;;15.52;53.72;95295.41;4986614;28;20041;-68
2021/10/21 09:08:13;;;;;;;10.10;1.50;;;17.50;44.30;;;15.46;50.61;95269.88;4971055;28;20681;-69
2021/10/21 09:10:53;;;;;;;9.30;1.15;;;17.00;44.70;;;15.44;51.72;95299.25;4981604;28;20059;-74
2021/10/21 09:13:23;;;;;;;7.88;1.48;;;17.00;45.30;;;15.44;52.80;95287.84;4975989;28;20058;-71
2021/10/21 09:15:50;;;;;;;5.90;1.35;;;17.60;44.70;;;15.61;52.95;95325.81;5003352;28;20045;-73
2021/10/21 09:18:17;;;;;;;7.60;1.40;;;18.80;41.30;;;15.82;52.82;95298.59;4989994;28;20041;-74
2021/10/21 09:20:43;;;;;;;6.30;1.33;;;19.60;39.40;;;16.06;52.59;95290.47;4991665;28;20467;-72
2021/10/21 09:23:11;;;;;;;7.07;1.38;;;20.00;38.40;;;16.30;51.96;95302.50;4992052;28;20046;-69
2021/10/21 09:25:38;;;;;;;9.30;1.38;;;20.60;37.40;;;16.49;51.43;95306.47;4992095;28;20034;-69
2021/10/21 09:28:26;;;;;;;11.45;1.35;;;20.20;36.90;;;16.76;48.76;95284.56;4972357;28;20459;-67
2021/10/21 09:31:08;;;;;;;4.90;1.00;;;20.60;37.60;;;17.03;48.68;95327.91;4991851;28;20034;-68
2021/10/21 09:33:44;;;;;;;4.55;0.80;;;21.10;35.50;;;17.08;48.72;95292.63;4961296;28;20515;-68
2021/10/21 09:36:09;;;;;;;5.82;1.02;;;21.00;36.30;;;17.21;50.32;95304.75;4990006;28;20046;-73
2021/10/21 09:38:35;;;;;;;6.53;1.17;;;21.30;35.20;;;17.50;50.37;95306.09;4984576;28;20066;-68
2021/10/21 09:41:15;;;;;;;8.57;1.20;;;21.80;34.70;;;17.62;46.65;95312.03;4985246;28;20507;-71
2021/10/21 09:43:41;;;;;;;3.03;0.63;;;20.60;36.70;;;17.64;49.12;95298.50;5007509;28;20038;-72
2021/10/21 09:46:43;;;;;;;11.00;1.17;;;19.80;38.00;;;17.51;45.99;95296.25;4986979;28;20034;-67
2021/10/21 09:49:33;;;;;;;8.18;1.25;;;18.80;40.30;;;17.28;46.37;95329.25;5003287;28;20634;-68
2021/10/21 09:52:02;;;;;;;6.47;1.30;;;18.40;41.60;;;17.04;47.83;95328.72;4991593;28;20116;-67
2021/10/21 09:54:31;;;;;;;7.80;1.13;;;17.90;42.70;;;16.83;47.73;95328.47;4978250;28;20049;-68
2021/10/21 09:57:18;;;;;;;10.80;1.75;;;18.00;42.90;;;16.70;47.40;95330.66;4974769;28;20075;-68
2021/10/21 10:00:05;;;;;;;8.63;1.05;;;17.90;43.00;;;16.50;46.99;95334.63;5007973;28;20064;-69
2021/10/21 10:02:32;;;;;;;9.90;1.30;;;17.70;42.80;;;16.36;48.91;95362.56;4987932;28;20062;-68
2021/10/21 10:05:02;;;;;;;6.43;1.20;;;17.60;43.40;;;16.17;48.21;95339.97;4976352;28;20041;-69
2021/10/21 10:07:28;;;;;;;4.72;1.00;;;17.40;43.20;;;16.11;48.72;95355.03;4973787;28;20034;-71
2021/10/21 10:09:59;;;;;;;7.20;1.17;;;17.50;43.20;;;16.09;49.16;95353.66;4990378;28;20034;-69
2021/10/21 10:12:27;;;;;;;;;;;17.60;42.80;;;16.09;47.36;95346.50;5002315;28;20038;-70
2021/10/21 10:14:53;;;;;;;11.55;1.20;;;17.80;41.80;;;16.04;48.57;95345.59;4971612;28;19956;-68
2021/10/21 10:17:19;;;;;;;6.07;1.05;;;17.60;41.90;;;16.08;48.94;95362.66;4990253;28;20133;-69
2021/10/21 10:19:46;;;;;;;7.75;1.25;;;18.30;42.00;;;16.17;48.90;95356.72;5008508;28;20030;-70